Terminal Aerodrome Forecast
Issued by NWS Wakefield, VA

Home | Current Version | Previous Version | Text Only | Print | Product List | Glossary On
Versions: 1 2 3 4 5 6 7 8 9 10 11 12 13 14 15 16 17 18 19 20 21 22 23
000
FTUS41 KAKQ 221400 AAA
TAFORF
TAF AMD
KORF 221402Z 2214/2312 11005KT P6SM SCT015 BKN250
      TEMPO 2214/2216 BKN015
     FM221800 12008KT P6SM BKN035 BKN250
     FM230000 16005KT P6SM BKN035 BKN100=

USA.gov is the U.S. government's official web portal to all federal, state and local government web resources and services.